This is the latest recevied weather packets stored in our database for station/object N4AR. If no packets are shown the sender has not sent any weather packets the latest 10 day(s).
| Time | Temp. | Humidity | Pressure | Rain* | Wind** | Luminosity | Snow |
|---|---|---|---|---|---|---|---|
| 1777589339 | 20° C | 68% | 1008.7 hPa | 0 mm | - | 50 W/m² | - |
| 1777589036 | 20° C | 68% | 1008.9 hPa | 0 mm | - | 46 W/m² | - |
| 1777588732 | 20° C | 67% | 1008.6 hPa | 0 mm | - | 56 W/m² | - |
| 1777588428 | 19.44° C | 68% | 1008.7 hPa | 0 mm | - | 158 W/m² | - |
| 1777588123 | 19.44° C | 67% | 1008.9 hPa | 0 mm | - | 194 W/m² | - |
| 1777587820 | 18.89° C | 69% | 1008.8 hPa | 0 mm | - | 159 W/m² | - |
| 1777587519 | 18.89° C | 71% | 1008.7 hPa | 0 mm | - | 38 W/m² | - |
| 1777587215 | 18.89° C | 73% | 1008.7 hPa | 0 mm | - | 40 W/m² | - |
| 1777586910 | 18.89° C | 72% | 1008.9 hPa | 0 mm | - | 31 W/m² | - |
| 1777586607 | 19.44° C | 70% | 1008.6 hPa | 0 mm | - | 62 W/m² | - |
| 1777586303 | 19.44° C | 68% | 1008.7 hPa | 0 mm | - | 59 W/m² | - |
| 1777586001 | 20° C | 67% | 1008.6 hPa | 0 mm | - | 47 W/m² | - |
| 1777585696 | 20° C | 65% | 1008.7 hPa | 0 mm | - | 47 W/m² | - |
| 1777585396 | 20.56° C | 62% | 1008.8 hPa | 0 mm | - | 48 W/m² | - |
| 1777585091 | 21.67° C | 59% | 1008.6 hPa | 0 mm | - | 50 W/m² | - |
| 1777584787 | 22.22° C | 57% | 1008.7 hPa | 0 mm | - | 43 W/m² | - |
| 1777584486 | 22.22° C | 56% | 1008.6 hPa | 0 mm | - | 100 W/m² | - |
| 1777584182 | 21.67° C | 56% | 1008.7 hPa | 0 mm | - | 426 W/m² | - |
| 1777583881 | 21.67° C | 55% | 1008.6 hPa | 0 mm | - | 445 W/m² | - |
| 1777583577 | 21.67° C | 54% | 1008.6 hPa | 0 mm | - | 461 W/m² | - |
| 1777583276 | 21.67° C | 54% | 1008.7 hPa | 0 mm | - | 483 W/m² | - |
| 1777582976 | 22.22° C | 54% | 1008.6 hPa | 0 mm | - | 503 W/m² | - |
| 1777582674 | 22.78° C | 54% | 1008.6 hPa | 0 mm | - | 520 W/m² | - |
| 1777582369 | 22.78° C | 52% | 1008.6 hPa | 0 mm | - | 540 W/m² | - |
| 1777582068 | 22.78° C | 52% | 1008.7 hPa | 0 mm | - | 577 W/m² | - |
* Rain latest hour (hover to see other rain measurements)
** Current wind speed in m/s (hover to see current wind gust speed)